createdAt,value
2018-05-31T12:03:57.750Z,7.15
2018-05-31T12:06:27.140Z,7.15
2018-05-31T12:08:56.955Z,6.70
2018-05-31T12:12:59.035Z,7.00
2018-05-31T12:15:28.440Z,6.60
2018-05-31T12:17:57.839Z,6.53
2018-05-31T12:20:27.759Z,6.50
2018-05-31T12:22:57.176Z,5.90
2018-05-31T12:25:26.744Z,6.57
2018-05-31T12:27:56.255Z,6.83
2018-05-31T12:30:25.977Z,6.10
2018-05-31T12:32:55.384Z,6.57
2018-05-31T12:35:25.031Z,6.13
2018-05-31T12:37:54.399Z,6.10
2018-05-31T12:40:25.012Z,5.97
2018-05-31T12:42:54.753Z,6.00
2018-05-31T12:45:24.564Z,6.15
2018-05-31T12:47:54.530Z,6.10
2018-05-31T12:50:24.363Z,5.82
2018-05-31T12:52:55.142Z,6.32
2018-05-31T12:55:24.970Z,6.40
2018-05-31T12:57:54.577Z,6.60
2018-05-31T13:00:25.005Z,6.33
2018-05-31T13:02:56.378Z,6.90
2018-05-31T13:05:26.279Z,7.20
2018-05-31T13:07:56.963Z,6.50
2018-05-31T13:10:26.777Z,6.60
2018-05-31T13:12:57.193Z,5.97
2018-05-31T13:15:27.725Z,5.82
2018-05-31T13:17:58.613Z,5.90
2018-05-31T13:20:28.558Z,5.87
2018-05-31T13:22:58.860Z,5.80
2018-05-31T13:25:28.538Z,6.03
2018-05-31T13:27:58.228Z,6.00
2018-05-31T13:30:28.046Z,5.83
2018-05-31T13:32:58.182Z,5.37
2018-05-31T13:35:28.644Z,4.17
2018-05-31T13:37:58.734Z,4.93
2018-05-31T13:40:28.999Z,5.47
2018-05-31T13:42:59.904Z,5.70
2018-05-31T13:45:36.502Z,5.40
2018-05-31T13:48:06.551Z,5.70
2018-05-31T13:50:36.466Z,5.90
2018-05-31T13:53:06.236Z,5.67
2018-05-31T13:55:37.660Z,5.73
2018-05-31T13:58:12.081Z,5.63
2018-05-31T14:00:42.389Z,6.43
2018-05-31T14:03:13.213Z,5.90
2018-05-31T14:05:43.213Z,5.40
2018-05-31T14:08:13.196Z,5.90
2018-05-31T14:13:33.826Z,5.97
2018-05-31T14:16:03.959Z,5.35
2018-05-31T14:18:34.592Z,6.47
2018-05-31T14:21:04.323Z,6.17
2018-05-31T14:23:34.278Z,5.53
2018-05-31T14:26:06.997Z,5.37
2018-05-31T14:28:36.749Z,5.10
2018-05-31T14:31:06.646Z,6.10
2018-05-31T14:33:36.863Z,5.50
2018-05-31T14:36:06.928Z,5.50
2018-05-31T14:38:37.176Z,5.17
2018-05-31T14:41:06.859Z,5.17
2018-05-31T14:43:36.760Z,5.60
2018-05-31T14:46:06.569Z,5.23
2018-05-31T14:48:36.409Z,4.47
2018-05-31T14:51:06.422Z,5.40
2018-05-31T14:53:36.699Z,5.67
2018-05-31T14:56:07.779Z,4.73
2018-05-31T14:58:37.585Z,5.90
2018-05-31T15:01:07.585Z,5.30
2018-05-31T15:03:37.292Z,5.47
2018-05-31T15:06:06.905Z,5.40
2018-05-31T15:08:36.960Z,5.60
2018-05-31T15:11:06.906Z,5.70
2018-05-31T15:13:38.004Z,4.87
2018-05-31T15:16:08.406Z,4.83
2018-05-31T15:18:39.926Z,5.20
2018-05-31T15:21:09.798Z,5.13
2018-05-31T15:23:39.652Z,4.90
2018-05-31T15:26:10.334Z,4.67
2018-05-31T15:28:40.042Z,5.30
2018-05-31T15:31:09.576Z,5.47
2018-05-31T15:33:39.289Z,6.53
2018-05-31T15:36:09.249Z,6.20
2018-05-31T15:38:39.855Z,6.80
2018-05-31T15:41:09.464Z,7.53
2018-05-31T15:43:39.091Z,7.40
2018-05-31T15:46:08.699Z,7.90
2018-05-31T15:48:38.299Z,7.07
2018-05-31T15:51:07.943Z,7.53
2018-05-31T15:53:38.222Z,8.23
2018-05-31T15:56:08.722Z,7.00
2018-05-31T15:58:38.279Z,7.70
2018-05-31T16:01:08.405Z,6.97
2018-05-31T16:03:37.813Z,7.30
2018-05-31T16:06:07.158Z,7.20
2018-05-31T16:08:36.532Z,7.20
2018-05-31T16:11:06.910Z,7.80
2018-05-31T16:13:36.229Z,7.00
2018-05-31T16:16:05.608Z,7.23
2018-05-31T16:18:36.158Z,6.50
2018-05-31T16:21:05.498Z,8.30
2018-05-31T16:23:35.557Z,6.80
2018-05-31T16:26:05.376Z,7.77
2018-05-31T16:28:34.855Z,8.20
2018-05-31T16:31:04.921Z,7.23
2018-05-31T16:33:34.223Z,7.63
2018-05-31T16:36:03.537Z,7.00
2018-05-31T16:38:32.988Z,7.50
2018-05-31T16:41:03.135Z,8.50
2018-05-31T16:43:32.439Z,7.60
2018-05-31T16:46:01.757Z,8.10
2018-05-31T16:48:31.175Z,7.87
2018-05-31T16:51:01.374Z,7.80
2018-05-31T16:53:30.875Z,7.70
2018-05-31T16:56:00.967Z,6.10
2018-05-31T16:58:31.205Z,5.90
2018-05-31T17:03:47.488Z,7.30
2018-05-31T17:06:17.714Z,6.70
2018-05-31T17:11:37.421Z,6.70
2018-05-31T17:14:07.710Z,5.87
2018-05-31T17:16:37.218Z,5.97
2018-05-31T17:19:06.561Z,5.43
2018-05-31T17:21:36.529Z,6.17
2018-05-31T17:24:06.621Z,5.60
2018-05-31T17:26:36.182Z,5.57
2018-05-31T17:29:06.159Z,5.20
2018-05-31T17:31:36.345Z,5.27
2018-05-31T17:34:05.760Z,5.20
2018-05-31T17:36:35.175Z,5.47
2018-05-31T17:39:06.641Z,5.53
2018-05-31T17:41:38.393Z,5.77
2018-05-31T17:44:10.141Z,5.40
2018-05-31T17:46:40.287Z,5.60
2018-05-31T17:49:10.467Z,5.67
2018-05-31T17:51:39.845Z,5.70
2018-05-31T17:54:09.270Z,5.23
2018-05-31T17:56:49.884Z,5.17
2018-05-31T17:59:19.278Z,5.70
2018-05-31T18:04:40.390Z,6.03
2018-05-31T18:10:00.269Z,6.53
2018-05-31T18:12:29.689Z,6.40
2018-05-31T18:14:59.857Z,6.37
2018-05-31T18:17:29.233Z,6.83
2018-05-31T18:19:59.487Z,6.30
2018-05-31T18:22:29.063Z,7.00
2018-05-31T18:24:58.829Z,6.40
2018-05-31T18:27:28.304Z,6.73
2018-05-31T18:29:58.724Z,7.10
2018-05-31T18:32:28.296Z,6.67
2018-05-31T18:34:57.739Z,7.50
2018-05-31T18:37:27.085Z,7.50
2018-05-31T18:39:56.456Z,7.07
2018-05-31T18:42:26.567Z,7.47
2018-05-31T18:44:56.205Z,6.83
2018-05-31T18:47:27.526Z,6.53
2018-05-31T18:49:56.969Z,7.00
2018-05-31T18:52:26.561Z,7.17
2018-05-31T18:54:57.051Z,7.70
2018-05-31T18:57:26.517Z,7.30
2018-05-31T18:59:56.064Z,7.30
2018-05-31T19:02:25.625Z,6.80
2018-05-31T19:04:55.283Z,7.23
2018-05-31T19:07:26.637Z,6.70
2018-05-31T19:09:56.342Z,6.83
2018-05-31T19:12:30.135Z,6.73
2018-05-31T19:14:59.967Z,6.73
2018-05-31T19:17:30.491Z,6.67
2018-05-31T19:20:00.299Z,6.40
2018-05-31T19:22:30.010Z,6.27
2018-05-31T19:25:04.845Z,6.37
2018-05-31T19:27:34.437Z,6.50
2018-05-31T19:30:07.929Z,6.77
2018-05-31T19:32:38.109Z,6.93
2018-05-31T19:35:12.317Z,6.73
2018-05-31T19:37:41.754Z,6.23
2018-05-31T19:40:11.500Z,7.00
2018-05-31T19:42:45.024Z,6.03
2018-05-31T19:45:15.115Z,6.60
2018-05-31T19:47:45.049Z,6.30
2018-05-31T19:50:15.411Z,6.20
2018-05-31T19:53:52.575Z,5.93
2018-05-31T19:56:22.603Z,8.20
2018-05-31T20:00:59.449Z,6.13
2018-05-31T20:03:32.834Z,6.07
2018-05-31T20:06:02.787Z,6.47
2018-05-31T20:08:33.641Z,6.33
2018-05-31T20:11:03.426Z,6.17
2018-05-31T20:13:32.905Z,4.40
2018-05-31T20:16:03.098Z,4.90
2018-05-31T20:18:32.577Z,4.10
2018-05-31T20:21:02.998Z,4.40
2018-05-31T20:23:34.407Z,3.90
2018-05-31T20:26:03.917Z,4.23
2018-05-31T20:28:33.823Z,3.77
2018-05-31T20:31:04.129Z,4.30
2018-05-31T20:33:33.593Z,4.37
2018-05-31T20:36:04.729Z,4.67
2018-05-31T20:38:34.502Z,5.00
2018-05-31T20:41:04.139Z,3.63
2018-05-31T20:43:34.106Z,5.13
2018-05-31T20:46:03.967Z,5.50
2018-05-31T20:48:33.755Z,5.70
2018-05-31T20:51:03.498Z,5.80
2018-05-31T20:53:33.487Z,6.20
2018-05-31T20:56:03.381Z,6.80
2018-05-31T20:58:33.212Z,7.13
2018-05-31T21:01:02.928Z,6.47
2018-05-31T21:03:33.028Z,6.83
2018-05-31T21:06:02.696Z,7.23
2018-05-31T21:08:32.665Z,7.10
2018-05-31T21:11:03.069Z,6.90
2018-05-31T21:13:32.765Z,7.43
2018-05-31T21:16:02.558Z,6.90
2018-05-31T21:18:32.762Z,7.10
2018-05-31T21:21:03.929Z,7.57
2018-05-31T21:23:34.131Z,7.37
2018-05-31T21:26:04.002Z,7.40
2018-05-31T21:28:33.581Z,7.80
2018-05-31T21:31:03.321Z,8.03
2018-05-31T21:33:33.234Z,7.47
2018-05-31T21:36:03.469Z,7.70
2018-05-31T21:38:34.042Z,7.70
2018-05-31T21:41:03.711Z,8.40
2018-05-31T21:43:33.328Z,7.20
2018-05-31T21:46:03.246Z,7.77
2018-05-31T21:48:34.256Z,7.57
2018-05-31T21:51:04.017Z,7.20
2018-05-31T21:53:34.436Z,7.80
2018-05-31T21:56:03.909Z,7.93
2018-05-31T21:58:34.324Z,7.67
2018-05-31T22:01:04.750Z,7.67
2018-05-31T22:03:34.962Z,8.00
2018-05-31T22:06:04.596Z,8.00
2018-05-31T22:08:34.653Z,7.93
2018-05-31T22:11:04.540Z,8.17
2018-05-31T22:13:34.154Z,6.90
2018-05-31T22:16:03.688Z,7.33
2018-05-31T22:18:33.340Z,6.77
2018-05-31T22:21:03.021Z,8.00
2018-05-31T22:23:33.156Z,7.83
2018-05-31T22:26:02.825Z,8.40
2018-05-31T22:28:32.784Z,7.73
2018-05-31T22:31:03.834Z,7.90
2018-05-31T22:33:34.581Z,7.53
2018-05-31T22:36:03.949Z,8.33
2018-05-31T22:38:34.081Z,8.43
2018-05-31T22:41:04.344Z,8.47
2018-05-31T22:43:35.865Z,8.23
2018-05-31T22:46:05.268Z,8.20
2018-05-31T22:48:35.648Z,9.23
2018-05-31T22:51:05.953Z,8.60
2018-05-31T22:53:37.024Z,8.27
2018-05-31T22:56:07.440Z,9.40
2018-05-31T22:58:37.370Z,9.77
2018-05-31T23:01:07.696Z,9.87
2018-05-31T23:03:40.837Z,10.77
2018-05-31T23:06:11.333Z,10.17
2018-05-31T23:08:42.670Z,10.83
2018-05-31T23:11:12.626Z,11.40
2018-05-31T23:13:42.657Z,11.47
2018-05-31T23:16:12.304Z,10.03
2018-05-31T23:18:41.988Z,10.57
2018-05-31T23:21:12.058Z,11.37
2018-05-31T23:23:42.432Z,10.93
2018-05-31T23:26:12.992Z,10.93
2018-05-31T23:28:43.065Z,12.70
2018-05-31T23:31:13.790Z,13.47
2018-05-31T23:33:44.623Z,12.83
2018-05-31T23:36:14.944Z,13.53
2018-05-31T23:38:45.039Z,13.67
2018-05-31T23:41:15.734Z,13.43
2018-05-31T23:43:45.473Z,12.13
2018-05-31T23:46:15.433Z,11.30
2018-05-31T23:48:45.484Z,13.37
2018-05-31T23:51:15.405Z,12.63
2018-05-31T23:53:45.233Z,13.83
2018-05-31T23:56:15.046Z,12.43
2018-05-31T23:58:46.032Z,11.60
